Latest Weather Observations for Rhyll

IDV60801

Issued at 4:22 pm EDT Monday 30 March 2020 (issued every 10 minutes, with the page automatically refreshed every 10 minutes)

About weather observations | Map of weather stations | Latest weather observations for VIC | Other Formats
Station Details ID: 086373 Name: RHYLL Lat: -38.46 Lon: 145.31 Height: 13.4 m
Data from the previous 72 hours. | See also: Recent months at Rhyll
Date/Time
EDT
Temp
°C
App
Temp
°C
Dew
Point
°C
Rel
Hum
%
Delta-T
°C
Wind Press
QNH
hPa
Press
MSL
hPa
Rain since
9am
mm
Dir  Spd
km/h
Gust
km/h
Spd
kts
Gust
kts
30/04:00pm 20.2 18.2 8.5 47 6.1 NW 9 20 5 11 1012.7 1012.6 0.0
30/03:30pm 20.6 19.5 9.8 50 5.8 WNW 6 13 3 7 1013.0 1012.9 0.0
30/03:00pm 19.9 17.5 8.6 48 5.9 W 11 20 6 11 1012.9 1012.8 0.0
30/02:30pm 18.5 15.7 8.5 52 5.2 W 13 22 7 12 1013.2 1013.1 0.0
30/02:00pm 18.4 15.1 8.1 51 5.3 W 15 26 8 14 1013.1 1013.0 0.0
30/01:30pm 19.3 16.7 9.5 53 5.2 W 13 24 7 13 1013.3 1013.2 0.0
30/01:00pm 18.8 16.8 8.7 52 5.3 W 9 20 5 11 1013.3 1013.2 0.0
30/12:30pm 18.9 16.0 8.0 49 5.6 W 13 19 7 10 1013.2 1013.1 0.0
30/12:00pm 18.7 17.0 10.0 57 4.6 WNW 9 20 5 11 1013.1 1013.0 0.0
30/11:30am 18.9 17.7 11.7 63 4.0 NW 9 15 5 8 1013.3 1013.2 0.0
30/11:00am 18.6 17.2 12.1 66 3.6 NW 11 20 6 11 1013.3 1013.2 0.0
30/10:30am 17.6 15.6 11.4 67 3.4 WNW 13 24 7 13 1013.3 1013.2 0.0
30/10:00am 17.0 15.4 11.7 71 2.9 WNW 11 20 6 11 1013.1 1013.0 0.0
30/09:30am 16.3 15.6 12.1 76 2.3 WNW 7 17 4 9 1012.7 1012.6 0.0
30/09:00am 15.6 14.9 12.0 79 2.0 WNW 7 13 4 7 1012.5 1012.4 4.2
30/08:30am 15.3 14.6 11.5 78 2.0 WNW 6 13 3 7 1012.4 1012.3 4.2
30/08:00am 15.1 14.4 11.5 79 1.9 W 6 9 3 5 1012.1 1012.0 4.2
30/07:30am 15.3 14.7 11.7 79 1.9 WNW 6 11 3 6 1011.7 1011.6 4.2
30/07:00am 15.5 15.0 12.1 80 1.9 WNW 6 11 3 6 1011.2 1011.1 4.2
30/06:30am 15.8 15.4 12.4 80 1.9 WNW 6 15 3 8 1011.0 1010.9 4.2
30/06:00am 15.6 15.1 12.0 79 2.0 W 6 9 3 5 1010.6 1010.5 4.2
30/05:30am 16.1 15.6 12.5 79 2.0 W 7 13 4 7 1010.4 1010.3 4.2
30/05:00am 16.1 15.6 12.7 80 1.9 WNW 7 11 4 6 1010.5 1010.4 4.2
30/04:30am 16.2 15.8 12.9 81 1.8 WNW 7 11 4 6 1010.3 1010.2 4.2
30/04:00am 16.0 16.6 13.1 83 1.6 W 2 6 1 3 1010.8 1010.7 4.2
30/03:30am 16.0 16.2 13.1 83 1.6 WNW 4 6 2 3 1010.8 1010.7 4.2
30/03:00am 15.8 15.4 12.9 83 1.6 W 7 11 4 6 1011.0 1010.9 4.2
30/02:30am 15.8 15.5 12.7 82 1.7 WSW 6 9 3 5 1010.9 1010.8 4.2
30/02:00am 16.1 15.7 12.5 79 2.0 W 6 9 3 5 1011.2 1011.1 4.2
30/01:30am 16.5 15.9 12.3 76 2.3 WSW 7 15 4 8 1010.7 1010.6 4.2
30/01:00am 17.2 16.0 11.7 70 3.0 WSW 9 19 5 10 1010.9 1010.8 4.2
30/12:30am 17.5 16.0 12.0 70 3.0 SW 11 19 6 10 1010.8 1010.7 4.2
30/12:00am 17.6 17.3 13.3 76 2.4 WSW 7 13 4 7 1010.7 1010.6 4.2
 
Date/Time
EDT
Temp
°C
App
Temp
°C
Dew
Point
°C
Rel
Hum
%
Delta-T
°C
Wind Press
QNH
hPa
Press
MSL
hPa
Rain since
9am
mm
Dir  Spd
km/h
Gust
km/h
Spd
kts
Gust
kts
29/11:30pm 17.9 17.5 14.0 78 2.2 WSW 9 13 5 7 1010.9 1010.8 4.2
29/11:00pm 17.9 17.5 14.2 79 2.1 WSW 9 13 5 7 1011.0 1010.9 4.2
29/10:30pm 18.1 18.4 14.6 80 2.0 W 6 9 3 5 1010.7 1010.6 4.2
29/10:00pm 18.1 18.1 15.2 83 1.7 WSW 9 20 5 11 1010.5 1010.4 4.2
29/09:30pm 17.3 17.8 15.1 87 1.3 E 6 11 3 6 1009.9 1009.8 4.2
29/09:00pm 17.2 16.8 15.2 88 1.2 E 11 15 6 8 1009.5 1009.4 4.2
29/08:30pm 17.2 17.6 14.8 86 1.4 E 6 9 3 5 1009.5 1009.4 4.0
29/08:00pm 17.9 17.9 15.2 84 1.6 NE 9 13 5 7 1009.3 1009.2 4.0
29/07:30pm 18.2 18.5 15.1 82 1.8 NNE 7 11 4 6 1009.1 1009.0 4.0
29/07:00pm 18.4 18.4 15.1 81 1.9 NNE 9 17 5 9 1008.8 1008.7 4.0
29/06:30pm 18.2 16.1 15.1 82 1.8 NE 20 24 11 13 1008.6 1008.5 4.0
29/06:00pm 18.4 16.8 15.1 81 1.9 NNE 17 28 9 15 1008.1 1008.0 4.0
29/05:30pm 17.8 14.8 14.9 83 1.7 NNE 24 33 13 18 1008.7 1008.6 4.0
29/05:00pm 17.6 15.3 14.7 83 1.7 NNE 20 30 11 16 1008.7 1008.6 4.0
29/04:30pm 17.3 17.2 14.9 86 1.4 NNE 9 15 5 8 1008.9 1008.8 4.0
29/04:00pm 17.5 16.2 14.8 84 1.6 NNW 15 22 8 12 1010.4 1010.3 3.4
29/03:30pm 17.2 16.4 14.1 82 1.8 NW 11 19 6 10 1010.4 1010.3 3.2
29/03:00pm 17.8 14.5 14.9 83 1.7 W 26 44 14 24 1010.9 1010.8 1.2
29/02:50pm 18.7 14.9 14.6 77 2.4 W 28 50 15 27 1010.5 1010.4 0.2
29/02:30pm 22.9 18.2 14.2 58 5.1 NNW 32 44 17 24 1009.4 1009.3 0.0
29/02:00pm 24.9 18.3 13.8 50 6.5 N 41 50 22 27 1008.6 1008.5 0.0
29/01:30pm 25.0 20.0 13.5 48 6.7 N 32 43 17 23 1009.0 1008.9 0.0
29/01:02pm 24.9 19.9 13.5 49 6.7 N 32 52 17 28 1009.7 1009.6 0.0
29/01:00pm 24.8 19.1 13.0 47 6.9 N 35 52 19 28 1009.8 1009.7 0.0
29/12:30pm 24.2 19.1 13.1 50 6.4 N 32 44 17 24 1010.3 1010.2 0.0
29/12:00pm 23.9 18.3 13.2 51 6.2 N 35 54 19 29 1010.6 1010.5 0.0
29/11:49am 24.1 19.2 12.7 49 6.6 N 30 52 16 28 1010.8 1010.7 0.0
29/11:30am 23.5 18.0 12.5 50 6.3 N 33 46 18 25 1011.0 1010.9 0.0
29/11:00am 22.7 17.2 12.3 52 5.9 N 33 43 18 23 1011.4 1011.3 0.0
29/10:30am 22.2 17.6 12.2 53 5.7 N 28 41 15 22 1011.8 1011.7 0.0
29/10:00am 21.1 17.9 12.0 56 5.1 N 20 24 11 13 1012.2 1012.1 0.0
29/09:30am 20.6 17.4 11.2 55 5.2 N 19 24 10 13 1012.2 1012.1 0.0
29/09:00am 20.7 19.0 11.1 54 5.3 N 11 20 6 11 1012.2 1012.1 0.0
29/08:30am 20.0 17.9 11.2 57 4.8 N 13 19 7 10 1012.5 1012.4 0.0
29/08:00am 17.4 17.2 12.9 75 2.5 NE 6 9 3 5 1012.5 1012.4 0.0
29/07:30am 17.4 16.3 11.9 70 3.0 ENE 9 13 5 7 1012.5 1012.4 0.0
29/07:00am 18.7 16.5 10.8 60 4.3 NE 13 15 7 8 1012.5 1012.4 0.0
29/06:30am 18.3 16.1 10.9 62 4.0 NNE 13 15 7 8 1012.4 1012.3 0.0
29/06:00am 18.2 14.7 10.8 62 4.0 NE 20 22 11 12 1012.4 1012.3 0.0
29/05:30am 18.1 15.6 11.2 64 3.7 NE 15 17 8 9 1012.5 1012.4 0.0
29/05:00am 17.9 16.0 11.7 67 3.4 NE 13 15 7 8 1012.6 1012.5 0.0
29/04:30am 18.1 16.3 11.0 63 3.8 NE 11 15 6 8 1012.8 1012.7 0.0
29/04:00am 18.3 15.9 11.4 64 3.8 NE 15 17 8 9 1012.8 1012.7 0.0
29/03:30am 18.5 15.8 11.6 64 3.8 NE 17 17 9 9 1013.0 1012.9 0.0
29/03:00am 18.2 16.5 12.4 69 3.2 NE 13 15 7 8 1013.6 1013.5 0.0
29/02:30am 18.0 17.0 12.2 69 3.2 NE 9 11 5 6 1013.9 1013.8 0.0
29/02:00am 18.4 15.9 12.2 67 3.4 NE 17 20 9 11 1014.0 1013.9 0.0
29/01:30am 18.7 15.1 12.0 65 3.7 NE 22 26 12 14 1014.3 1014.3 0.0
29/01:00am 19.0 15.4 12.0 64 3.9 NE 22 26 12 14 1014.8 1014.8 0.0
29/12:30am 19.3 15.8 12.3 64 3.9 NE 22 24 12 13 1015.1 1015.1 0.0
29/12:00am 19.4 16.1 12.7 65 3.8 NE 22 24 12 13 1015.5 1015.5 0.0
 
Date/Time
EDT
Temp
°C
App
Temp
°C
Dew
Point
°C
Rel
Hum
%
Delta-T
°C
Wind Press
QNH
hPa
Press
MSL
hPa
Rain since
9am
mm
Dir  Spd
km/h
Gust
km/h
Spd
kts
Gust
kts
28/11:30pm 19.7 16.7 12.7 64 3.9 NE 20 22 11 12 1015.8 1015.8 0.0
28/11:00pm 18.6 16.9 13.5 72 2.9 NE 15 19 8 10 1016.0 1016.0 0.0
28/10:30pm 18.9 17.7 14.0 73 2.8 NE 13 15 7 8 1016.0 1016.0 0.0
28/10:00pm 18.8 17.4 13.4 71 3.1 ENE 13 17 7 9 1016.1 1016.1 0.0
28/09:30pm 19.2 17.8 13.4 69 3.3 NE 13 17 7 9 1016.3 1016.3 0.0
28/09:00pm 20.4 17.9 13.6 65 3.9 NE 19 20 10 11 1016.2 1016.2 0.0
28/08:30pm 20.1 18.4 13.6 66 3.7 NNE 15 17 8 9 1016.1 1016.1 0.0
28/08:00pm 20.6 18.3 13.1 62 4.3 NNE 17 19 9 10 1016.0 1016.0 0.0
28/07:30pm 21.3 19.3 12.7 58 4.9 NNE 15 19 8 10 1016.2 1016.2 0.0
28/07:00pm 21.9 19.5 12.7 56 5.2 NNE 17 20 9 11 1016.1 1016.1 0.0
28/06:30pm 22.6 20.9 12.5 53 5.7 NNE 13 19 7 10 1016.2 1016.2 0.0
28/06:00pm 24.6 23.2 12.2 46 7.1 NNE 11 20 6 11 1016.2 1016.2 0.0
28/05:30pm 24.1 22.4 12.4 48 6.7 N 13 20 7 11 1016.5 1016.5 0.0
28/05:00pm 24.6 22.1 12.2 46 7.1 N 17 22 9 12 1016.6 1016.6 0.0
28/04:30pm 24.9 21.7 11.8 44 7.4 N 20 28 11 15 1016.8 1016.8 0.0
28/04:00pm 25.1 21.9 12.0 44 7.5 N 20 24 11 13 1017.1 1017.1 0.0
28/03:30pm 25.2 22.5 11.7 43 7.7 N 17 22 9 12 1017.4 1017.4 0.0
28/03:00pm 25.2 23.7 13.1 47 7.0 N 13 20 7 11 1017.7 1017.7 0.0
28/02:30pm 25.6 23.5 12.4 43 7.6 NNE 15 24 8 13 1018.0 1018.0 0.0
28/02:00pm 25.6 24.5 13.1 46 7.3 N 11 20 6 11 1018.5 1018.5 0.0
28/01:30pm 25.7 24.6 13.2 46 7.3 N 11 17 6 9 1019.2 1019.2 0.0
28/01:00pm 24.5 22.2 13.1 49 6.6 N 17 20 9 11 1019.7 1019.7 0.0
28/12:30pm 24.4 23.0 13.3 50 6.5 N 13 22 7 12 1020.1 1020.1 0.0
28/12:00pm 23.8 22.8 13.4 52 6.0 N 11 19 6 10 1020.5 1020.5 0.0
28/11:30am 23.5 23.2 13.4 53 5.9 NE 7 13 4 7 1020.8 1020.8 0.0
28/11:00am 22.6 21.1 13.1 55 5.4 ENE 13 17 7 9 1021.1 1021.1 0.0
28/10:30am 22.1 20.7 13.5 58 5.0 ENE 13 17 7 9 1021.2 1021.2 0.0
28/10:00am 21.3 20.9 14.0 63 4.2 ENE 9 11 5 6 1021.3 1021.3 0.0
28/09:30am 19.3 18.4 13.7 70 3.2 ENE 11 15 6 8 1021.4 1021.4 0.0
28/09:00am 16.8 15.1 12.3 75 2.5 ENE 13 15 7 8 1021.4 1021.4 0.0
28/08:30am 16.0 14.0 11.6 75 2.4 ENE 13 19 7 10 1021.4 1021.4 0.0
28/08:00am 15.9 15.1 10.9 72 2.7 NE 6 9 3 5 1021.3 1021.3 0.0
28/07:30am 15.4 14.9 10.8 74 2.4 N 4 6 2 3 1021.2 1021.2 0.0
28/07:00am 15.9 15.0 11.3 74 2.5 NNW 7 11 4 6 1021.0 1021.0 0.0
28/06:30am 16.0 16.2 10.5 70 2.9 CALM 0 2 0 1 1020.7 1020.7 0.0
28/06:00am 17.0 15.7 11.1 68 3.2 NE 9 13 5 7 1020.7 1020.7 0.0
28/05:30am 17.4 15.6 11.0 66 3.4 NE 11 17 6 9 1020.7 1020.7 0.0
28/05:00am 17.2 16.1 10.8 66 3.4 NNE 7 11 4 6 1020.7 1020.7 0.0
28/04:30am 17.8 17.0 10.9 64 3.7 N 6 11 3 6 1020.7 1020.7 0.0
28/04:00am 17.0 16.2 11.1 68 3.2 W 6 7 3 4 1020.9 1020.9 0.0
28/03:30am 17.4 16.5 11.2 67 3.4 NE 7 9 4 5 1021.0 1021.0 0.0
28/03:00am 17.8 17.3 10.7 63 3.8 NW 4 7 2 4 1021.2 1021.2 0.0
28/02:30am 17.9 17.3 10.3 61 4.1 NNW 4 9 2 5 1021.2 1021.2 0.0
28/02:00am 17.8 15.8 11.6 67 3.4 NE 13 19 7 10 1021.3 1021.3 0.0
28/01:30am 17.3 14.6 11.6 69 3.1 ENE 17 22 9 12 1021.2 1021.2 0.0
28/01:00am 17.8 15.9 11.8 68 3.3 NE 13 17 7 9 1021.4 1021.4 0.0
28/12:30am 17.4 14.4 12.1 71 2.9 ENE 19 22 10 12 1021.5 1021.5 0.0
28/12:00am 17.3 14.3 12.4 73 2.7 ENE 20 24 11 13 1021.6 1021.6 0.0
 
Date/Time
EDT
Temp
°C
App
Temp
°C
Dew
Point
°C
Rel
Hum
%
Delta-T
°C
Wind Press
QNH
hPa
Press
MSL
hPa
Rain since
9am
mm
Dir  Spd
km/h
Gust
km/h
Spd
kts
Gust
kts
27/11:30pm 17.2 13.9 12.7 75 2.5 ENE 22 28 12 15 1021.6 1021.6 0.0
27/11:00pm 17.4 16.9 13.7 79 2.1 ENE 9 13 5 7 1022.0 1022.0 0.0
27/10:30pm 17.6 18.3 14.5 82 1.8 E 4 9 2 5 1022.3 1022.3 0.0
27/10:00pm 16.9 16.9 13.6 81 1.9 E 6 9 3 5 1022.2 1022.2 0.0
27/09:30pm 17.3 17.8 14.0 81 1.9 SE 4 4 2 2 1022.2 1022.2 0.0
27/09:00pm 18.0 17.7 14.3 79 2.1 E 9 15 5 8 1022.1 1022.1 0.0
27/08:30pm 18.8 17.5 14.7 77 2.4 ESE 15 19 8 10 1021.9 1021.9 0.0
27/08:00pm 18.9 17.3 14.0 73 2.8 SE 15 19 8 10 1021.8 1021.8 0.0
27/07:30pm 18.4 17.6 13.9 75 2.6 SE 11 17 6 9 1021.9 1021.9 0.0
27/07:00pm 18.7 18.3 14.2 75 2.6 SE 9 13 5 7 1021.8 1021.8 0.0
27/06:30pm 18.8 17.6 13.9 73 2.8 SSE 13 17 7 9 1021.8 1021.8 0.0
27/06:00pm 19.1 17.9 14.1 73 2.9 SSE 13 17 7 9 1022.0 1022.0 0.0
27/05:30pm 19.3 18.5 13.9 71 3.1 S 11 20 6 11 1022.1 1022.1 0.0
27/05:00pm 20.2 19.5 14.3 69 3.4 S 11 17 6 9 1022.2 1022.2 0.0
27/04:30pm 20.3 19.6 14.2 68 3.5 S 11 15 6 8 1022.5 1022.5 0.0

Other formats

Comma delimited format used in spreadsheet applications
http://www.bom.gov.au/fwo/IDV60801/IDV60801.94892.axf

JavaScript Object Notation format (JSON) in row-major order
http://www.bom.gov.au/fwo/IDV60801/IDV60801.94892.json

Data quality

Most of these data are generated automatically and are frequently updated. Quality checks on data are not normally performed. It is possible for incorrect values to appear. Refer to information at About Latest Weather Observations and please check the disclaimer before using these data.